Terminal Aerodrome Forecast
Issued by NWS Sioux Falls, SD

Home | Current Version | Previous Version | Text Only | Print | Product List | Glossary Off
Versions: 1 2 3 4 5 6 7 8 9 10 11 12

000
FTUS43 KFSD 201734
TAFSUX
TAF
KSUX 201734Z 2018/2118 22009KT P6SM SCT200
     FM202200 25010KT P6SM BKN150
     FM210500 29006KT P6SM BKN140
     FM210800 33012KT P6SM BKN090
     FM211400 34019G27KT P6SM FEW090=

USA.gov is the U.S. government's official web portal to all federal, state and local government web resources and services.